createdAt,value
2017-09-05T00:00:05.442Z,1011.73
2017-09-05T00:00:31.553Z,1011.8
2017-09-05T00:00:57.698Z,1011.79
2017-09-05T00:01:23.843Z,1011.78
2017-09-05T00:01:50.571Z,1011.75
2017-09-05T00:02:16.696Z,1011.76
2017-09-05T00:02:42.808Z,1011.78
2017-09-05T00:03:08.920Z,1011.75
2017-09-05T00:03:35.041Z,1011.8
2017-09-05T00:04:01.147Z,1011.79
2017-09-05T00:04:27.262Z,1011.81
2017-09-05T00:04:53.373Z,1011.81
2017-09-05T00:05:19.481Z,1011.84
2017-09-05T00:05:45.592Z,1011.8
2017-09-05T00:06:11.699Z,1011.85
2017-09-05T00:06:37.839Z,1011.84
2017-09-05T00:07:03.997Z,1011.82
2017-09-05T00:07:30.101Z,1011.88
2017-09-05T00:07:56.212Z,1011.83
2017-09-05T00:08:22.326Z,1011.87
2017-09-05T00:08:48.430Z,1011.92
2017-09-05T00:09:14.546Z,1011.93
2017-09-05T00:09:40.694Z,1011.91
2017-09-05T00:10:06.803Z,1011.89
2017-09-05T00:10:32.940Z,1011.9
2017-09-05T00:10:59.063Z,1011.93
2017-09-05T00:11:25.166Z,1011.95
2017-09-05T00:11:51.274Z,1011.93
2017-09-05T00:12:17.388Z,1011.9
2017-09-05T00:12:43.493Z,1011.92
2017-09-05T00:13:09.599Z,1011.93
2017-09-05T00:13:35.704Z,1011.94
2017-09-05T00:14:01.819Z,1011.9
2017-09-05T00:14:27.935Z,1011.93
2017-09-05T00:14:54.041Z,1011.91
2017-09-05T00:15:20.148Z,1011.9
2017-09-05T00:15:46.276Z,1011.9
2017-09-05T00:16:12.389Z,1011.89
2017-09-05T00:16:38.503Z,1011.88
2017-09-05T00:17:04.614Z,1011.87
2017-09-05T00:17:30.723Z,1011.85
2017-09-05T00:17:56.829Z,1011.88
2017-09-05T00:18:22.937Z,1011.86
2017-09-05T00:18:49.051Z,1011.86
2017-09-05T00:19:15.157Z,1011.89
2017-09-05T00:19:41.269Z,1011.82
2017-09-05T00:20:07.376Z,1011.87
2017-09-05T00:20:33.498Z,1011.82
2017-09-05T00:20:59.626Z,1011.88
2017-09-05T00:21:25.733Z,1011.85
2017-09-05T00:21:51.840Z,1011.85
2017-09-05T00:22:17.952Z,1011.88
2017-09-05T00:22:44.058Z,1011.83
2017-09-05T00:23:10.173Z,1011.83
2017-09-05T00:23:36.282Z,1011.85
2017-09-05T00:24:02.387Z,1011.81
2017-09-05T00:24:28.496Z,1011.87
2017-09-05T00:24:54.605Z,1011.82
2017-09-05T00:25:20.712Z,1011.78
2017-09-05T00:25:46.844Z,1011.8
2017-09-05T00:26:12.967Z,1011.81
2017-09-05T00:26:39.078Z,1011.83
2017-09-05T00:27:05.207Z,1011.84
2017-09-05T00:27:31.322Z,1011.83
2017-09-05T00:27:57.425Z,1011.84
2017-09-05T00:28:23.539Z,1011.82
2017-09-05T00:28:49.650Z,1011.84
2017-09-05T00:29:15.858Z,1011.89
2017-09-05T00:29:41.948Z,1011.83
2017-09-05T00:30:08.061Z,1011.89
2017-09-05T00:30:34.166Z,1011.86
2017-09-05T00:31:00.272Z,1011.86
2017-09-05T00:31:26.382Z,1011.87
2017-09-05T00:31:52.485Z,1011.87
2017-09-05T00:32:18.599Z,1011.85
2017-09-05T00:32:44.704Z,1011.85
2017-09-05T00:33:10.821Z,1011.88
2017-09-05T00:33:36.931Z,1011.89
2017-09-05T00:34:03.067Z,1011.85
2017-09-05T00:34:29.172Z,1011.89
2017-09-05T00:34:55.287Z,1011.86
2017-09-05T00:35:21.438Z,1011.87
2017-09-05T00:35:47.549Z,1011.9
2017-09-05T00:36:13.651Z,1011.91
2017-09-05T00:36:39.763Z,1011.87
2017-09-05T00:37:05.869Z,1011.88
2017-09-05T00:37:31.982Z,1011.89
2017-09-05T00:37:58.107Z,1011.89
2017-09-05T00:38:24.222Z,1011.93
2017-09-05T00:38:50.333Z,1011.87
2017-09-05T00:39:16.438Z,1011.89
2017-09-05T00:39:42.580Z,1011.89
2017-09-05T00:40:08.659Z,1011.91
2017-09-05T00:40:34.770Z,1011.9
2017-09-05T00:41:00.920Z,1011.89
2017-09-05T00:41:27.035Z,1011.88
2017-09-05T00:41:53.158Z,1011.91
2017-09-05T00:42:19.253Z,1011.9
2017-09-05T00:42:45.378Z,1011.92
2017-09-05T00:43:11.489Z,1011.91
2017-09-05T00:43:37.596Z,1011.95
2017-09-05T00:44:03.769Z,1011.93
2017-09-05T00:44:29.869Z,1011.96
2017-09-05T00:44:55.983Z,1011.94
2017-09-05T00:45:22.084Z,1011.95
2017-09-05T00:45:48.191Z,1011.94
2017-09-05T00:46:14.312Z,1011.95
2017-09-05T00:46:40.424Z,1011.96
2017-09-05T00:47:06.544Z,1011.96
2017-09-05T00:47:32.657Z,1011.97
2017-09-05T00:47:58.764Z,1011.97
2017-09-05T00:48:24.874Z,1011.99
2017-09-05T00:48:50.993Z,1011.97
2017-09-05T00:49:17.104Z,1011.97
2017-09-05T00:49:43.225Z,1011.97
2017-09-05T00:50:09.352Z,1011.99
2017-09-05T00:50:35.465Z,1011.97
2017-09-05T00:51:01.604Z,1012.02
2017-09-05T00:51:27.712Z,1011.94
2017-09-05T00:51:53.817Z,1011.95
2017-09-05T00:52:19.932Z,1011.95
2017-09-05T00:52:46.079Z,1011.92
2017-09-05T00:53:12.221Z,1011.9
2017-09-05T00:53:38.334Z,1011.93
2017-09-05T00:54:04.441Z,1011.93
2017-09-05T00:54:30.555Z,1011.91
2017-09-05T00:54:56.656Z,1011.93
2017-09-05T00:55:22.776Z,1011.92
2017-09-05T00:55:48.895Z,1011.9
2017-09-05T00:56:14.993Z,1011.92
2017-09-05T00:56:41.101Z,1011.9
2017-09-05T00:57:07.206Z,1011.92
2017-09-05T00:57:33.319Z,1011.92
2017-09-05T00:57:59.427Z,1011.88
2017-09-05T00:58:25.638Z,1011.9
2017-09-05T00:58:53.189Z,1011.91
2017-09-05T00:59:19.353Z,1011.9
2017-09-05T00:59:45.482Z,1011.87
2017-09-05T01:00:11.626Z,1011.89
2017-09-05T01:00:37.762Z,1011.9
2017-09-05T01:01:03.894Z,1011.91
2017-09-05T01:01:30.048Z,1011.87
2017-09-05T01:01:56.179Z,1011.92
2017-09-05T01:02:22.305Z,1011.93
2017-09-05T01:02:48.443Z,1011.93
2017-09-05T01:03:14.595Z,1011.92
2017-09-05T01:03:40.863Z,1011.9
2017-09-05T01:04:07.003Z,1011.93
2017-09-05T01:04:33.133Z,1011.93
2017-09-05T01:04:59.269Z,1011.92
2017-09-05T01:05:25.401Z,1011.95
2017-09-05T01:05:51.538Z,1011.91
2017-09-05T01:06:17.664Z,1011.9
2017-09-05T01:06:43.805Z,1011.96
2017-09-05T01:07:09.937Z,1011.94
2017-09-05T01:07:36.077Z,1011.92
2017-09-05T01:08:02.205Z,1011.94
2017-09-05T01:08:28.336Z,1011.94
2017-09-05T01:08:54.471Z,1011.92
2017-09-05T01:09:20.600Z,1011.94
2017-09-05T01:09:46.736Z,1011.93
2017-09-05T01:10:12.929Z,1011.94
2017-09-05T01:10:39.064Z,1011.98
2017-09-05T01:11:05.205Z,1011.96
2017-09-05T01:11:31.376Z,1011.93
2017-09-05T01:11:57.537Z,1011.92
2017-09-05T01:12:23.670Z,1011.95
2017-09-05T01:12:49.884Z,1011.94
2017-09-05T01:13:16.014Z,1011.94
2017-09-05T01:13:42.148Z,1011.94
2017-09-05T01:14:08.283Z,1011.94
2017-09-05T01:14:34.407Z,1011.9
2017-09-05T01:15:00.546Z,1011.95
2017-09-05T01:15:26.671Z,1011.9
2017-09-05T01:15:52.812Z,1011.95
2017-09-05T01:16:18.944Z,1011.95
2017-09-05T01:16:45.080Z,1011.92
2017-09-05T01:17:11.210Z,1011.93
2017-09-05T01:17:37.345Z,1011.95
2017-09-05T01:18:03.472Z,1011.97
2017-09-05T01:18:29.605Z,1011.93
2017-09-05T01:18:55.775Z,1011.92
2017-09-05T01:19:21.918Z,1011.95
2017-09-05T01:19:48.047Z,1011.95
2017-09-05T01:20:14.186Z,1011.96
2017-09-05T01:20:40.366Z,1011.93
2017-09-05T01:21:06.546Z,1011.96
2017-09-05T01:21:32.699Z,1011.97
2017-09-05T01:21:58.828Z,1011.93
2017-09-05T01:22:24.970Z,1011.93
2017-09-05T01:22:51.093Z,1011.93
2017-09-05T01:23:17.231Z,1011.96
2017-09-05T01:23:43.365Z,1011.96
2017-09-05T01:24:09.505Z,1011.92
2017-09-05T01:24:35.635Z,1011.91
2017-09-05T01:25:01.789Z,1011.96
2017-09-05T01:25:27.940Z,1011.93
2017-09-05T01:25:54.075Z,1011.93
2017-09-05T01:26:20.205Z,1011.91
2017-09-05T01:26:46.334Z,1011.91
2017-09-05T01:27:12.572Z,1011.9
2017-09-05T01:27:38.694Z,1011.92
2017-09-05T01:28:04.856Z,1011.91
2017-09-05T01:28:30.985Z,1011.96
2017-09-05T01:28:57.119Z,1011.95
2017-09-05T01:29:23.254Z,1011.93
2017-09-05T01:29:49.389Z,1011.92
2017-09-05T01:30:15.527Z,1011.97
2017-09-05T01:30:41.661Z,1011.98
2017-09-05T01:31:07.819Z,1011.97
2017-09-05T01:31:33.954Z,1011.96
2017-09-05T01:32:00.146Z,1011.98
2017-09-05T01:32:26.289Z,1011.95
2017-09-05T01:32:52.429Z,1011.96
2017-09-05T01:33:18.555Z,1011.94
2017-09-05T01:33:44.684Z,1011.95
2017-09-05T01:34:10.823Z,1011.93
2017-09-05T01:34:36.954Z,1011.93
2017-09-05T01:35:03.091Z,1011.94
2017-09-05T01:35:29.224Z,1011.94
2017-09-05T01:35:55.355Z,1011.97
2017-09-05T01:36:21.480Z,1011.94
2017-09-05T01:36:47.619Z,1011.93
2017-09-05T01:37:13.749Z,1011.95
2017-09-05T01:37:39.877Z,1011.93
2017-09-05T01:38:06.012Z,1011.92
2017-09-05T01:38:32.143Z,1011.9
2017-09-05T01:38:58.264Z,1011.91
2017-09-05T01:39:24.404Z,1011.91
2017-09-05T01:39:50.538Z,1011.91
2017-09-05T01:40:16.670Z,1011.93
2017-09-05T01:40:42.798Z,1011.91
2017-09-05T01:41:08.932Z,1011.93
2017-09-05T01:41:35.061Z,1011.95
2017-09-05T01:42:01.194Z,1011.92
2017-09-05T01:42:27.327Z,1011.92
2017-09-05T01:42:53.467Z,1011.93
2017-09-05T01:43:19.606Z,1011.92
2017-09-05T01:43:45.734Z,1011.94
2017-09-05T01:44:11.875Z,1011.95
2017-09-05T01:44:38.007Z,1012
2017-09-05T01:45:04.136Z,1011.96
2017-09-05T01:45:30.261Z,1011.94
2017-09-05T01:45:56.396Z,1011.96
2017-09-05T01:46:22.524Z,1011.97
2017-09-05T01:46:48.659Z,1011.97
2017-09-05T01:47:14.783Z,1011.96
2017-09-05T01:47:40.933Z,1011.97
2017-09-05T01:48:07.074Z,1011.96
2017-09-05T01:48:33.207Z,1011.94
2017-09-05T01:48:59.337Z,1011.96
2017-09-05T01:49:25.472Z,1011.97
2017-09-05T01:49:51.605Z,1011.99
2017-09-05T01:50:17.737Z,1011.99
2017-09-05T01:50:43.891Z,1011.96
2017-09-05T01:51:10.027Z,1011.96
2017-09-05T01:51:36.153Z,1011.98
2017-09-05T01:52:02.293Z,1011.96
2017-09-05T01:52:28.424Z,1012.02
2017-09-05T01:52:54.560Z,1012
2017-09-05T01:53:20.690Z,1012
2017-09-05T01:53:46.821Z,1012
2017-09-05T01:54:12.957Z,1012.01
2017-09-05T01:54:39.089Z,1012
2017-09-05T01:55:05.219Z,1011.99
2017-09-05T01:55:31.359Z,1012.04
2017-09-05T01:55:57.485Z,1012
2017-09-05T01:56:23.621Z,1012
2017-09-05T01:56:49.751Z,1012
2017-09-05T01:57:15.883Z,1011.99
2017-09-05T01:57:42.044Z,1011.98
2017-09-05T01:58:08.178Z,1012.01
2017-09-05T01:58:34.309Z,1012
2017-09-05T01:59:00.435Z,1011.99
2017-09-05T01:59:26.571Z,1012.02
2017-09-05T01:59:52.704Z,1011.97
2017-09-05T02:00:18.836Z,1011.96
2017-09-05T02:00:44.968Z,1011.99
2017-09-05T02:01:11.101Z,1012.03
2017-09-05T02:01:37.240Z,1012.01
2017-09-05T02:02:03.366Z,1012.01
2017-09-05T02:02:29.502Z,1012.04
2017-09-05T02:02:55.629Z,1012.02
2017-09-05T02:03:21.761Z,1012.03
2017-09-05T02:03:47.889Z,1012
2017-09-05T02:04:14.034Z,1012.02
2017-09-05T02:04:40.159Z,1012
2017-09-05T02:05:06.291Z,1012
2017-09-05T02:05:32.415Z,1011.98
2017-09-05T02:05:58.570Z,1011.94
2017-09-05T02:06:24.707Z,1011.97
2017-09-05T02:06:50.843Z,1011.91
2017-09-05T02:07:16.979Z,1011.95
2017-09-05T02:07:43.108Z,1011.9
2017-09-05T02:08:09.245Z,1011.87
2017-09-05T02:08:35.374Z,1011.86
2017-09-05T02:09:01.501Z,1011.89
2017-09-05T02:09:27.636Z,1011.85
2017-09-05T02:09:53.766Z,1011.87
2017-09-05T02:10:19.898Z,1011.88
2017-09-05T02:10:46.023Z,1011.89
2017-09-05T02:11:12.156Z,1011.85
2017-09-05T02:11:38.286Z,1011.84
2017-09-05T02:12:04.425Z,1011.82
2017-09-05T02:12:30.555Z,1011.84
2017-09-05T02:12:56.682Z,1011.86
2017-09-05T02:13:22.818Z,1011.79
2017-09-05T02:13:48.952Z,1011.8
2017-09-05T02:14:15.080Z,1011.79
2017-09-05T02:14:41.214Z,1011.75
2017-09-05T02:15:07.357Z,1011.77
2017-09-05T02:15:33.492Z,1011.8
2017-09-05T02:15:59.620Z,1011.77
2017-09-05T02:16:25.754Z,1011.78
2017-09-05T02:16:51.887Z,1011.75
2017-09-05T02:17:18.021Z,1011.73
2017-09-05T02:17:44.158Z,1011.73
2017-09-05T02:18:10.282Z,1011.71
2017-09-05T02:18:36.422Z,1011.7
2017-09-05T02:19:02.550Z,1011.69
2017-09-05T02:19:28.689Z,1011.68
2017-09-05T02:19:54.821Z,1011.7
2017-09-05T02:20:20.950Z,1011.7
2017-09-05T02:20:47.088Z,1011.69
2017-09-05T02:21:13.222Z,1011.69
2017-09-05T02:21:39.348Z,1011.7
2017-09-05T02:22:05.487Z,1011.69
2017-09-05T02:22:31.618Z,1011.69
2017-09-05T02:22:57.753Z,1011.66
2017-09-05T02:23:23.885Z,1011.68
2017-09-05T02:23:50.021Z,1011.69
2017-09-05T02:24:16.159Z,1011.67
2017-09-05T02:24:42.282Z,1011.65
2017-09-05T02:25:08.418Z,1011.66
2017-09-05T02:25:34.545Z,1011.62
2017-09-05T02:26:00.687Z,1011.64
2017-09-05T02:26:26.820Z,1011.63
2017-09-05T02:26:52.952Z,1011.6
2017-09-05T02:27:19.106Z,1011.6
2017-09-05T02:27:45.243Z,1011.55
2017-09-05T02:28:11.364Z,1011.59
2017-09-05T02:28:37.524Z,1011.58
2017-09-05T02:29:03.650Z,1011.52
2017-09-05T02:29:29.784Z,1011.52
2017-09-05T02:29:55.913Z,1011.5
2017-09-05T02:30:22.038Z,1011.5
2017-09-05T02:30:48.173Z,1011.49
2017-09-05T02:31:14.302Z,1011.5
2017-09-05T02:31:40.443Z,1011.5
2017-09-05T02:32:06.571Z,1011.49
2017-09-05T02:32:32.712Z,1011.51
2017-09-05T02:32:58.838Z,1011.45
2017-09-05T02:33:24.973Z,1011.44
2017-09-05T02:33:51.112Z,1011.43
2017-09-05T02:34:17.248Z,1011.44
2017-09-05T02:34:43.384Z,1011.42
2017-09-05T02:35:09.510Z,1011.42
2017-09-05T02:35:35.650Z,1011.42
2017-09-05T02:36:01.799Z,1011.46
2017-09-05T02:36:27.956Z,1011.45
2017-09-05T02:36:54.106Z,1011.43
2017-09-05T02:37:20.240Z,1011.43
2017-09-05T02:37:46.376Z,1011.43
2017-09-05T02:38:12.509Z,1011.4
2017-09-05T02:38:38.639Z,1011.42
2017-09-05T02:39:04.769Z,1011.41
2017-09-05T02:39:30.909Z,1011.45
2017-09-05T02:39:57.041Z,1011.4
2017-09-05T02:40:23.173Z,1011.41
2017-09-05T02:40:49.306Z,1011.41
2017-09-05T02:41:15.438Z,1011.4
2017-09-05T02:41:41.565Z,1011.41
2017-09-05T02:42:07.700Z,1011.41
2017-09-05T02:42:33.829Z,1011.39
2017-09-05T02:42:59.970Z,1011.41
2017-09-05T02:43:26.105Z,1011.36
2017-09-05T02:43:52.231Z,1011.39
2017-09-05T02:44:18.362Z,1011.35
2017-09-05T02:44:44.502Z,1011.4
2017-09-05T02:45:10.633Z,1011.36
2017-09-05T02:45:36.766Z,1011.34
2017-09-05T02:46:02.903Z,1011.35
2017-09-05T02:46:29.034Z,1011.35
2017-09-05T02:46:55.168Z,1011.34
2017-09-05T02:47:21.303Z,1011.35
2017-09-05T02:47:47.442Z,1011.3
2017-09-05T02:48:13.564Z,1011.33
2017-09-05T02:48:39.710Z,1011.34
2017-09-05T02:49:05.836Z,1011.33
2017-09-05T02:49:31.966Z,1011.35
2017-09-05T02:49:58.102Z,1011.38
2017-09-05T02:50:24.229Z,1011.36
2017-09-05T02:50:50.358Z,1011.35
2017-09-05T02:51:16.491Z,1011.35
2017-09-05T02:51:42.630Z,1011.36
2017-09-05T02:52:08.764Z,1011.35
2017-09-05T02:52:34.894Z,1011.38
2017-09-05T02:53:01.029Z,1011.39
2017-09-05T02:53:27.160Z,1011.38
2017-09-05T02:53:53.293Z,1011.36
2017-09-05T02:54:19.446Z,1011.38
2017-09-05T02:54:45.600Z,1011.41
2017-09-05T02:55:11.731Z,1011.37
2017-09-05T02:55:37.867Z,1011.37
2017-09-05T02:56:03.995Z,1011.39
2017-09-05T02:56:30.145Z,1011.4
2017-09-05T02:56:56.278Z,1011.4
2017-09-05T02:57:22.410Z,1011.42
2017-09-05T02:57:48.539Z,1011.39
2017-09-05T02:58:14.672Z,1011.45
2017-09-05T02:58:40.806Z,1011.43
2017-09-05T02:59:06.933Z,1011.4
2017-09-05T02:59:33.068Z,1011.47
2017-09-05T02:59:59.205Z,1011.46
2017-09-05T03:00:25.334Z,1011.41
2017-09-05T03:00:51.470Z,1011.42
2017-09-05T03:01:17.602Z,1011.41
2017-09-05T03:01:43.727Z,1011.42
2017-09-05T03:02:09.866Z,1011.43
2017-09-05T03:02:35.996Z,1011.43
2017-09-05T03:03:02.136Z,1011.46
2017-09-05T03:03:28.269Z,1011.46
2017-09-05T03:03:54.400Z,1011.44
2017-09-05T03:04:20.532Z,1011.43
2017-09-05T03:04:46.671Z,1011.46
2017-09-05T03:05:12.796Z,1011.44
2017-09-05T03:05:38.934Z,1011.44
2017-09-05T03:06:05.070Z,1011.49
2017-09-05T03:06:31.198Z,1011.47
2017-09-05T03:06:57.325Z,1011.47
2017-09-05T03:07:23.462Z,1011.54
2017-09-05T03:07:49.600Z,1011.51
2017-09-05T03:08:15.726Z,1011.5
2017-09-05T03:08:41.866Z,1011.48
2017-09-05T03:09:07.990Z,1011.54
2017-09-05T03:09:34.125Z,1011.49
2017-09-05T03:10:00.250Z,1011.5
2017-09-05T03:10:26.377Z,1011.51
2017-09-05T03:10:52.513Z,1011.54
2017-09-05T03:11:18.674Z,1011.57
2017-09-05T03:11:44.811Z,1011.53
2017-09-05T03:12:10.941Z,1011.51
2017-09-05T03:12:37.077Z,1011.52
2017-09-05T03:13:03.234Z,1011.52
2017-09-05T03:13:29.364Z,1011.52
2017-09-05T03:13:55.521Z,1011.54
2017-09-05T03:14:21.653Z,1011.54
2017-09-05T03:14:47.803Z,1011.53
2017-09-05T03:15:13.944Z,1011.51
2017-09-05T03:15:40.069Z,1011.48
2017-09-05T03:16:06.206Z,1011.51
2017-09-05T03:16:32.356Z,1011.48
2017-09-05T03:16:58.485Z,1011.51
2017-09-05T03:17:24.629Z,1011.52
2017-09-05T03:17:50.759Z,1011.46
2017-09-05T03:18:16.891Z,1011.46
2017-09-05T03:18:43.024Z,1011.47
2017-09-05T03:19:09.155Z,1011.44
2017-09-05T03:19:35.287Z,1011.44
2017-09-05T03:20:01.423Z,1011.47
2017-09-05T03:20:27.549Z,1011.46
2017-09-05T03:20:53.715Z,1011.45
2017-09-05T03:21:19.866Z,1011.45
2017-09-05T03:21:45.997Z,1011.47
2017-09-05T03:22:12.130Z,1011.44
2017-09-05T03:22:38.263Z,1011.46
2017-09-05T03:23:04.395Z,1011.45
2017-09-05T03:23:30.529Z,1011.47
2017-09-05T03:23:56.661Z,1011.48
2017-09-05T03:24:22.800Z,1011.5
2017-09-05T03:24:48.921Z,1011.47
2017-09-05T03:25:15.057Z,1011.5
2017-09-05T03:25:41.187Z,1011.47
2017-09-05T03:26:07.326Z,1011.5
2017-09-05T03:26:33.460Z,1011.51
2017-09-05T03:26:59.588Z,1011.49
2017-09-05T03:27:25.724Z,1011.49
2017-09-05T03:27:51.853Z,1011.47
2017-09-05T03:28:17.991Z,1011.48
2017-09-05T03:28:44.123Z,1011.5
2017-09-05T03:29:10.253Z,1011.52
2017-09-05T03:29:36.385Z,1011.52
2017-09-05T03:30:02.515Z,1011.5
2017-09-05T03:30:28.649Z,1011.53
2017-09-05T03:30:54.781Z,1011.5
2017-09-05T03:31:20.904Z,1011.52
2017-09-05T03:31:47.063Z,1011.53
2017-09-05T03:32:13.198Z,1011.51
2017-09-05T03:32:39.323Z,1011.52
2017-09-05T03:33:05.458Z,1011.52
2017-09-05T03:33:31.591Z,1011.5
2017-09-05T03:33:57.717Z,1011.52
2017-09-05T03:34:23.851Z,1011.51
2017-09-05T03:34:49.991Z,1011.49
2017-09-05T03:35:16.117Z,1011.48
2017-09-05T03:35:42.258Z,1011.49
2017-09-05T03:36:08.383Z,1011.45
2017-09-05T03:36:34.522Z,1011.48
2017-09-05T03:37:00.653Z,1011.48
2017-09-05T03:37:26.781Z,1011.46
2017-09-05T03:37:52.918Z,1011.44
2017-09-05T03:38:19.055Z,1011.45
2017-09-05T03:38:45.183Z,1011.43
2017-09-05T03:39:11.315Z,1011.44
2017-09-05T03:39:37.455Z,1011.43
2017-09-05T03:40:03.604Z,1011.42
2017-09-05T03:40:29.739Z,1011.44
2017-09-05T03:40:55.874Z,1011.47
2017-09-05T03:41:22.003Z,1011.43
2017-09-05T03:41:48.137Z,1011.42
2017-09-05T03:42:14.271Z,1011.45
2017-09-05T03:42:40.431Z,1011.44
2017-09-05T03:43:06.562Z,1011.43
2017-09-05T03:43:32.700Z,1011.43
2017-09-05T03:43:58.826Z,1011.42
2017-09-05T03:44:24.960Z,1011.41
2017-09-05T03:44:51.085Z,1011.4
2017-09-05T03:45:17.219Z,1011.4
2017-09-05T03:45:43.359Z,1011.38
2017-09-05T03:46:09.487Z,1011.4
2017-09-05T03:46:35.629Z,1011.4
2017-09-05T03:47:01.767Z,1011.39
2017-09-05T03:47:27.896Z,1011.34
2017-09-05T03:47:54.023Z,1011.36
2017-09-05T03:48:20.158Z,1011.33
2017-09-05T03:48:46.287Z,1011.32
2017-09-05T03:49:12.426Z,1011.3
2017-09-05T03:49:38.551Z,1011.32
2017-09-05T03:50:04.681Z,1011.3
2017-09-05T03:50:30.831Z,1011.29
2017-09-05T03:50:56.971Z,1011.31
2017-09-05T03:51:23.102Z,1011.3
2017-09-05T03:51:49.237Z,1011.29
2017-09-05T03:52:15.371Z,1011.32
2017-09-05T03:52:41.501Z,1011.3
2017-09-05T03:53:07.633Z,1011.33
2017-09-05T03:53:33.771Z,1011.31
2017-09-05T03:53:59.896Z,1011.31
2017-09-05T03:54:26.036Z,1011.32
2017-09-05T03:54:52.169Z,1011.31
2017-09-05T03:55:18.293Z,1011.32
2017-09-05T03:55:44.430Z,1011.32
2017-09-05T03:56:10.556Z,1011.32
2017-09-05T03:56:36.689Z,1011.34
2017-09-05T03:57:02.825Z,1011.31
2017-09-05T03:57:28.973Z,1011.37
2017-09-05T03:57:55.105Z,1011.34
2017-09-05T03:58:21.238Z,1011.35
2017-09-05T03:58:47.373Z,1011.34
2017-09-05T03:59:13.503Z,1011.32
2017-09-05T03:59:39.642Z,1011.35
2017-09-05T04:00:05.769Z,1011.36
2017-09-05T04:00:31.907Z,1011.37
2017-09-05T04:00:58.042Z,1011.37
2017-09-05T04:01:24.166Z,1011.39
2017-09-05T04:01:50.294Z,1011.38
2017-09-05T04:02:16.433Z,1011.36
2017-09-05T04:02:42.564Z,1011.4
2017-09-05T04:03:08.693Z,1011.42
2017-09-05T04:03:34.831Z,1011.43
2017-09-05T04:04:00.956Z,1011.4
2017-09-05T04:04:27.086Z,1011.44
2017-09-05T04:04:53.216Z,1011.41
2017-09-05T04:05:19.356Z,1011.41
2017-09-05T04:05:45.484Z,1011.41
2017-09-05T04:06:11.618Z,1011.43
2017-09-05T04:06:37.756Z,1011.44
2017-09-05T04:07:03.886Z,1011.42
2017-09-05T04:07:30.045Z,1011.45
2017-09-05T04:07:56.178Z,1011.45
2017-09-05T04:08:22.307Z,1011.41
2017-09-05T04:08:48.441Z,1011.44
2017-09-05T04:09:14.577Z,1011.42
2017-09-05T04:09:40.706Z,1011.43
2017-09-05T04:10:06.842Z,1011.45
2017-09-05T04:10:32.965Z,1011.45
2017-09-05T04:10:59.102Z,1011.41
2017-09-05T04:11:25.237Z,1011.44
2017-09-05T04:11:51.371Z,1011.43
2017-09-05T04:12:17.504Z,1011.45
2017-09-05T04:12:43.631Z,1011.44
2017-09-05T04:13:09.770Z,1011.45
2017-09-05T04:13:35.901Z,1011.45
2017-09-05T04:14:02.042Z,1011.43
2017-09-05T04:14:28.170Z,1011.42
2017-09-05T04:14:54.304Z,1011.41
2017-09-05T04:15:20.429Z,1011.4
2017-09-05T04:15:46.569Z,1011.42
2017-09-05T04:16:12.694Z,1011.39
2017-09-05T04:16:38.827Z,1011.37
2017-09-05T04:17:04.961Z,1011.34
2017-09-05T04:17:31.089Z,1011.39
2017-09-05T04:17:57.227Z,1011.35
2017-09-05T04:18:23.362Z,1011.39
2017-09-05T04:18:49.485Z,1011.41
2017-09-05T04:19:15.616Z,1011.37
2017-09-05T04:19:41.749Z,1011.39
2017-09-05T04:20:07.886Z,1011.38
2017-09-05T04:20:34.009Z,1011.37
2017-09-05T04:21:00.148Z,1011.39
2017-09-05T04:21:26.278Z,1011.4
2017-09-05T04:21:52.410Z,1011.41
2017-09-05T04:22:18.568Z,1011.4
2017-09-05T04:22:44.697Z,1011.39
2017-09-05T04:23:10.836Z,1011.44
2017-09-05T04:23:36.966Z,1011.39
2017-09-05T04:24:03.096Z,1011.44
2017-09-05T04:24:29.229Z,1011.45
2017-09-05T04:24:55.356Z,1011.44
2017-09-05T04:25:21.486Z,1011.47
2017-09-05T04:25:47.623Z,1011.47
2017-09-05T04:26:13.762Z,1011.47
2017-09-05T04:26:39.891Z,1011.43
2017-09-05T04:27:06.025Z,1011.47
2017-09-05T04:27:32.159Z,1011.45
2017-09-05T04:27:58.288Z,1011.47
2017-09-05T04:28:24.425Z,1011.49
2017-09-05T04:28:50.559Z,1011.48
2017-09-05T04:29:16.690Z,1011.52
2017-09-05T04:29:42.815Z,1011.48
2017-09-05T04:30:08.948Z,1011.53
2017-09-05T04:30:35.073Z,1011.5
2017-09-05T04:31:01.243Z,1011.49
2017-09-05T04:31:27.369Z,1011.54
2017-09-05T04:31:53.505Z,1011.5
2017-09-05T04:32:19.640Z,1011.54
2017-09-05T04:32:45.766Z,1011.5
2017-09-05T04:33:11.897Z,1011.49
2017-09-05T04:33:38.024Z,1011.5
2017-09-05T04:34:04.157Z,1011.5
2017-09-05T04:34:30.296Z,1011.5
2017-09-05T04:34:56.424Z,1011.51
2017-09-05T04:35:22.553Z,1011.48
2017-09-05T04:35:48.686Z,1011.54
2017-09-05T04:36:14.822Z,1011.49
2017-09-05T04:36:40.959Z,1011.46
2017-09-05T04:37:07.090Z,1011.48
2017-09-05T04:37:33.232Z,1011.48
2017-09-05T04:37:59.350Z,1011.49
2017-09-05T04:38:25.490Z,1011.45
2017-09-05T04:38:51.662Z,1011.45
2017-09-05T04:39:17.795Z,1011.44
2017-09-05T04:39:43.927Z,1011.43
2017-09-05T04:40:10.066Z,1011.43
2017-09-05T04:40:36.193Z,1011.43
2017-09-05T04:41:02.327Z,1011.4
2017-09-05T04:41:28.464Z,1011.42
2017-09-05T04:41:54.590Z,1011.42
2017-09-05T04:42:20.729Z,1011.41
2017-09-05T04:42:46.860Z,1011.44
2017-09-05T04:43:12.994Z,1011.46
2017-09-05T04:43:39.121Z,1011.43
2017-09-05T04:44:05.261Z,1011.38
2017-09-05T04:44:31.436Z,1011.42
2017-09-05T04:44:57.574Z,1011.41
2017-09-05T04:45:23.698Z,1011.42
2017-09-05T04:45:49.837Z,1011.42
2017-09-05T04:46:15.997Z,1011.41
2017-09-05T04:46:42.128Z,1011.41
2017-09-05T04:47:08.265Z,1011.39
2017-09-05T04:47:34.398Z,1011.39
2017-09-05T04:48:00.531Z,1011.39
2017-09-05T04:48:26.657Z,1011.37
2017-09-05T04:48:52.782Z,1011.38
2017-09-05T04:49:18.916Z,1011.35
2017-09-05T04:49:45.049Z,1011.4
2017-09-05T04:50:11.210Z,1011.36
2017-09-05T04:50:37.333Z,1011.35
2017-09-05T04:51:03.465Z,1011.36
2017-09-05T04:51:29.599Z,1011.37
2017-09-05T04:51:55.728Z,1011.31
2017-09-05T04:52:21.856Z,1011.34
2017-09-05T04:52:47.994Z,1011.35
2017-09-05T04:53:14.132Z,1011.34
2017-09-05T04:53:40.262Z,1011.37
2017-09-05T04:54:06.392Z,1011.39
2017-09-05T04:54:32.529Z,1011.38
2017-09-05T04:54:58.663Z,1011.41
2017-09-05T04:55:24.802Z,1011.4
2017-09-05T04:55:50.929Z,1011.41
2017-09-05T04:56:17.068Z,1011.4
2017-09-05T04:56:43.198Z,1011.39
2017-09-05T04:57:09.334Z,1011.39
2017-09-05T04:57:35.467Z,1011.42
2017-09-05T04:58:01.604Z,1011.42
2017-09-05T04:58:27.739Z,1011.43
2017-09-05T04:58:53.864Z,1011.41
2017-09-05T04:59:19.996Z,1011.41
2017-09-05T04:59:46.131Z,1011.42
2017-09-05T05:00:12.265Z,1011.44
2017-09-05T05:00:38.391Z,1011.46
2017-09-05T05:01:04.531Z,1011.45
2017-09-05T05:01:30.664Z,1011.45
2017-09-05T05:01:56.791Z,1011.43
2017-09-05T05:02:22.926Z,1011.43
2017-09-05T05:02:49.052Z,1011.45
2017-09-05T05:03:15.217Z,1011.49
2017-09-05T05:03:41.355Z,1011.44
2017-09-05T05:04:07.485Z,1011.42
2017-09-05T05:04:33.610Z,1011.43
2017-09-05T05:04:59.748Z,1011.43
2017-09-05T05:05:25.899Z,1011.42
2017-09-05T05:05:52.040Z,1011.45
2017-09-05T05:06:18.174Z,1011.4
2017-09-05T05:06:44.306Z,1011.48
2017-09-05T05:07:10.440Z,1011.43
2017-09-05T05:07:36.569Z,1011.44
2017-09-05T05:08:02.693Z,1011.48
2017-09-05T05:08:28.829Z,1011.45
2017-09-05T05:08:54.968Z,1011.48
2017-09-05T05:09:21.089Z,1011.46
2017-09-05T05:09:47.221Z,1011.48
2017-09-05T05:10:13.357Z,1011.47
2017-09-05T05:10:39.486Z,1011.46
2017-09-05T05:11:05.614Z,1011.48
2017-09-05T05:11:31.752Z,1011.48
2017-09-05T05:11:57.914Z,1011.47
2017-09-05T05:12:24.046Z,1011.46
2017-09-05T05:12:50.177Z,1011.48
2017-09-05T05:13:16.314Z,1011.47
2017-09-05T05:13:42.464Z,1011.46
2017-09-05T05:14:08.601Z,1011.51
2017-09-05T05:14:34.738Z,1011.49
2017-09-05T05:15:00.868Z,1011.49
2017-09-05T05:15:26.989Z,1011.47
2017-09-05T05:15:53.119Z,1011.47
2017-09-05T05:16:19.258Z,1011.48
2017-09-05T05:16:45.389Z,1011.5
2017-09-05T05:17:11.518Z,1011.48
2017-09-05T05:17:37.655Z,1011.45